Time;durP1;ratioP1;P1;durP2;ratioP2;P2;SDS_P1;SDS_P2;PMS_P1;PMS_P2;Temp;Humidity;BMP_temperature;BMP_pressure;BME280_temperature;BME280_humidity;BME280_pressure;Samples;Min_cycle;Max_cycle;Signal;HPM_P1;HPM_P2
2023/09/08 00:00:59;;;;;;;8.73;7.47;;;;;;;14.17;100.00;93371.91;2522212;23;20026;-87
2023/09/08 00:02:04;;;;;;;9.57;7.85;;;;;;;14.16;100.00;93373.09;2521759;23;20006;-87
2023/09/08 00:03:06;;;;;;;8.68;7.57;;;;;;;14.14;100.00;93372.78;2523592;23;20010;-88
2023/09/08 00:04:08;;;;;;;10.20;7.60;;;;;;;14.12;100.00;93370.53;2521142;23;20011;-87
2023/09/08 00:05:12;;;;;;;9.25;7.68;;;;;;;14.05;100.00;93374.19;2511192;23;20059;-89
2023/09/08 00:06:14;;;;;;;8.98;7.80;;;;;;;14.06;100.00;93370.31;2522348;23;20476;-88
2023/09/08 00:07:16;;;;;;;9.85;7.68;;;;;;;14.13;100.00;93368.59;2546209;23;20017;-88
2023/09/08 00:08:17;;;;;;;10.20;7.68;;;;;;;14.15;100.00;93372.34;2533841;23;20016;-87
2023/09/08 00:09:22;;;;;;;10.98;8.75;;;;;;;14.20;100.00;93369.13;2523305;23;19999;-89
2023/09/08 00:10:23;;;;;;;12.38;8.57;;;;;;;14.16;100.00;93368.47;2534537;23;20365;-87
2023/09/08 00:11:25;;;;;;;10.57;8.18;;;;;;;14.11;100.00;93371.72;2521420;23;20357;-88
2023/09/08 00:12:27;;;;;;;8.90;8.00;;;;;;;14.07;100.00;93371.06;2510244;23;20350;-87
2023/09/08 00:13:29;;;;;;;9.23;8.02;;;;;;;14.11;100.00;93369.78;2522123;23;20007;-88
2023/09/08 00:14:31;;;;;;;9.40;8.30;;;;;;;14.15;100.00;93371.59;2510599;23;20570;-88
2023/09/08 00:15:36;;;;;;;9.55;8.13;;;;;;;14.13;100.00;93376.66;2510172;23;20055;-88
2023/09/08 00:16:59;;;;;;;8.90;8.00;;;;;;;14.09;100.00;93369.47;2510440;23;20006;-87
2023/09/08 00:18:03;;;;;;;11.27;7.80;;;;;;;14.11;100.00;93367.09;2530966;23;20560;-87
2023/09/08 00:19:05;;;;;;;8.68;7.53;;;;;;;14.06;100.00;93364.19;2522010;23;20024;-87
2023/09/08 00:20:10;;;;;;;8.98;7.70;;;;;;;14.01;100.00;93364.75;2533288;23;20005;-88
2023/09/08 00:21:12;;;;;;;10.93;8.02;;;;;;;13.84;100.00;93367.53;2534990;23;20010;-87
2023/09/08 00:22:13;;;;;;;10.32;8.27;;;;;;;13.88;100.00;93364.75;2546144;23;20002;-88
2023/09/08 00:23:18;;;;;;;8.82;7.97;;;;;;;13.91;100.00;93366.53;2533934;23;20017;-87
2023/09/08 00:24:20;;;;;;;10.23;8.27;;;;;;;13.83;100.00;93366.03;2522497;23;20010;-87
2023/09/08 00:25:22;;;;;;;9.55;8.65;;;;;;;13.86;100.00;93367.09;2521905;23;20490;-87
2023/09/08 00:26:23;;;;;;;11.52;8.80;;;;;;;13.94;100.00;93368.38;2521738;23;20049;-87
2023/09/08 00:27:25;;;;;;;9.93;8.27;;;;;;;13.99;100.00;93367.09;2521824;23;20037;-87
2023/09/08 00:28:31;;;;;;;11.18;7.97;;;;;;;13.84;100.00;93364.09;2510111;23;20011;-87
2023/09/08 00:29:33;;;;;;;11.77;8.13;;;;;;;13.83;100.00;93363.34;2522529;23;20003;-87
2023/09/08 00:30:34;;;;;;;9.20;8.35;;;;;;;13.86;100.00;93365.16;2509606;23;20006;-87
2023/09/08 00:31:42;;;;;;;9.60;8.70;;;;;;;13.96;100.00;93357.19;2512439;23;20010;-85
2023/09/08 00:32:44;;;;;;;13.38;8.48;;;;;;;13.84;100.00;93361.41;2533894;23;20002;-87
2023/09/08 00:33:46;;;;;;;9.63;8.63;;;;;;;13.76;100.00;93360.84;2521757;23;20418;-88
2023/09/08 00:34:51;;;;;;;9.32;8.15;;;;;;;13.76;100.00;93363.53;2522287;23;20083;-87
2023/09/08 00:35:53;;;;;;;9.70;8.15;;;;;;;13.73;100.00;93358.28;2546369;23;20092;-88
2023/09/08 00:36:55;;;;;;;11.73;8.63;;;;;;;13.77;100.00;93356.97;2533805;23;20076;-88
2023/09/08 00:37:57;;;;;;;9.10;8.23;;;;;;;13.76;100.00;93358.16;2509718;23;20022;-88
2023/09/08 00:38:58;;;;;;;10.43;9.20;;;;;;;13.68;100.00;93351.50;2521528;23;20016;-87
2023/09/08 00:40:00;;;;;;;9.60;8.63;;;;;;;13.73;100.00;93358.28;2533515;23;20033;-87
2023/09/08 00:41:05;;;;;;;9.65;8.57;;;;;;;13.75;100.00;93362.03;2509960;23;20086;-88
2023/09/08 00:42:08;;;;;;;10.77;9.07;;;;;;;13.69;100.00;93358.38;2523548;23;20017;-88
2023/09/08 00:43:13;;;;;;;13.98;8.38;;;;;;;13.75;100.00;93361.31;2521220;23;20089;-88
2023/09/08 00:44:14;;;;;;;8.73;7.82;;;;;;;13.77;100.00;93356.25;2522884;23;20409;-88
2023/09/08 00:45:16;;;;;;;10.80;8.20;;;;;;;13.78;100.00;93357.72;2521666;23;20010;-89
2023/09/08 00:46:18;;;;;;;11.00;8.20;;;;;;;13.72;100.00;93354.09;2509332;23;20007;-87
2023/09/08 00:47:23;;;;;;;8.95;8.15;;;;;;;13.73;100.00;93350.97;2521247;23;20011;-88
2023/09/08 00:48:26;;;;;;;9.27;8.43;;;;;;;13.71;100.00;93356.03;2522154;23;20016;-87
2023/09/08 00:49:28;;;;;;;11.00;8.35;;;;;;;13.68;100.00;93353.44;2510130;23;20343;-88
2023/09/08 00:50:30;;;;;;;8.85;8.05;;;;;;;13.71;100.00;93356.03;2522229;23;20010;-88
2023/09/08 00:51:33;;;;;;;9.52;8.65;;;;;;;13.73;100.00;93352.91;2521999;23;20010;-88
2023/09/08 00:52:36;;;;;;;10.85;8.88;;;;;;;13.72;100.00;93356.78;2510912;23;20003;-90
2023/09/08 00:53:38;;;;;;;10.05;9.00;;;;;;;13.71;100.00;93358.72;2522389;23;20054;-88
2023/09/08 00:54:43;;;;;;;11.45;8.50;;;;;;;13.66;100.00;93351.19;2521520;23;20441;-87
2023/09/08 00:55:48;;;;;;;10.63;8.52;;;;;;;13.64;100.00;93350.09;2511131;23;20306;-88
2023/09/08 00:56:55;;;;;;;9.90;8.90;;;;;;;13.64;100.00;93352.78;2510854;23;20058;-88
2023/09/08 00:58:02;;;;;;;10.52;8.77;;;;;;;13.69;100.00;93344.94;2511875;23;20011;-87
2023/09/08 00:59:04;;;;;;;8.63;7.85;;;;;;;13.64;100.00;93353.53;2511813;23;20102;-89
2023/09/08 01:00:09;;;;;;;10.30;8.68;;;;;;;13.63;100.00;93346.66;2510412;23;20089;-88
2023/09/08 01:01:10;;;;;;;9.23;8.32;;;;;;;13.62;100.00;93347.84;2522673;23;20440;-88
2023/09/08 01:02:12;;;;;;;10.18;8.43;;;;;;;13.62;100.00;93349.78;2533681;23;20032;-87
2023/09/08 01:03:14;;;;;;;9.27;7.97;;;;;;;13.63;100.00;93351.28;2533551;23;20081;-88
2023/09/08 01:04:17;;;;;;;10.20;8.20;;;;;;;13.62;100.00;93347.84;2521628;23;20009;-88
2023/09/08 01:05:20;;;;;;;9.18;8.25;;;;;;;13.63;100.00;93352.03;2533533;23;20440;-87
2023/09/08 01:06:24;;;;;;;9.85;7.97;;;;;;;13.59;100.00;93348.72;2510495;23;20074;-89
2023/09/08 01:07:30;;;;;;;9.30;8.40;;;;;;;13.58;100.00;93347.97;2522475;23;20065;-88
2023/09/08 01:08:35;;;;;;;9.15;8.25;;;;;;;13.60;100.00;93344.84;2534840;23;20030;-88
2023/09/08 01:09:37;;;;;;;9.45;8.20;;;;;;;13.54;100.00;93341.94;2522270;23;20014;-87
2023/09/08 01:10:47;;;;;;;9.30;8.38;;;;;;;13.55;100.00;93348.06;2509819;23;20201;-87
2023/09/08 01:11:49;;;;;;;;;;;;;;;13.51;100.00;93350.84;2513829;23;20011;-88
2023/09/08 01:12:52;;;;;;;9.00;8.10;;;;;;;13.51;100.00;93348.16;2521633;23;20326;-88
2023/09/08 01:14:00;;;;;;;10.70;8.07;;;;;;;13.53;100.00;93345.06;2522896;23;20339;-88
2023/09/08 01:15:05;;;;;;;10.40;8.38;;;;;;;13.60;100.00;93339.47;2510859;23;20007;-89
2023/09/08 01:16:07;;;;;;;9.90;8.60;;;;;;;13.47;100.00;93347.50;2510863;23;20010;-88
2023/09/08 01:17:09;;;;;;;10.25;9.07;;;;;;;13.42;100.00;93348.03;2521579;23;20119;-87
2023/09/08 01:18:10;;;;;;;12.70;8.82;;;;;;;13.40;100.00;93345.03;2533204;23;20279;-88
2023/09/08 01:19:14;;;;;;;9.68;8.30;;;;;;;13.39;100.00;93346.22;2521668;23;20089;-87
2023/09/08 01:20:24;;;;;;;10.32;8.90;;;;;;;13.40;100.00;93339.66;2521866;23;20030;-87
2023/09/08 01:21:46;;;;;;;9.48;8.55;;;;;;;13.38;100.00;93344.69;2522823;23;20065;-87
2023/09/08 01:23:26;;;;;;;9.35;8.38;;;;;;;13.40;100.00;93341.59;2529809;23;20005;-88
2023/09/08 01:24:49;;;;;;;10.00;8.10;;;;;;;13.45;100.00;93349.88;2541719;23;20096;-88
2023/09/08 01:26:04;;;;;;;10.23;8.20;;;;;;;13.47;100.00;93341.38;2525317;23;20013;-88
2023/09/08 01:27:07;;;;;;;12.90;9.18;;;;;;;13.40;100.00;93345.03;2526882;23;20353;-88
2023/09/08 01:28:16;;;;;;;10.38;8.20;;;;;;;13.35;100.00;93337.53;2521373;23;20437;-87
2023/09/08 01:29:19;;;;;;;9.18;8.32;;;;;;;13.22;100.00;93339.41;2512479;23;20034;-87
2023/09/08 01:30:29;;;;;;;9.45;8.40;;;;;;;13.19;100.00;93334.88;2510145;23;20013;-87
2023/09/08 01:31:31;;;;;;;11.93;8.45;;;;;;;13.19;100.00;93329.50;2524664;23;20105;-87
2023/09/08 01:32:36;;;;;;;9.60;8.63;;;;;;;13.16;100.00;93335.72;2522165;23;20014;-88
2023/09/08 01:33:38;;;;;;;10.13;8.70;;;;;;;13.13;100.00;93329.28;2510486;23;20002;-86
2023/09/08 01:34:40;;;;;;;9.88;8.98;;;;;;;13.27;100.00;93341.59;2509502;23;20073;-87
2023/09/08 01:35:43;;;;;;;11.90;9.02;;;;;;;13.24;100.00;93339.75;2510189;23;20017;-87
2023/09/08 01:36:48;;;;;;;9.75;8.75;;;;;;;13.24;100.00;93329.00;2522851;23;20450;-87
2023/09/08 01:37:49;;;;;;;9.93;8.15;;;;;;;13.30;100.00;93336.13;2521259;23;20010;-87
2023/09/08 01:38:51;;;;;;;9.48;8.60;;;;;;;13.34;100.00;93330.63;2521687;23;20049;-87
2023/09/08 01:40:00;;;;;;;8.80;7.97;;;;;;;13.26;100.00;93332.03;2534133;23;20010;-86
2023/09/08 01:41:03;;;;;;;9.65;8.38;;;;;;;13.22;100.00;93328.66;2522182;23;20517;-87
2023/09/08 01:42:10;;;;;;;9.10;8.30;;;;;;;13.23;100.00;93322.88;2512681;23;20346;-88
2023/09/08 01:43:12;;;;;;;9.52;8.63;;;;;;;13.24;100.00;93329.00;2510077;23;20367;-87
2023/09/08 01:44:13;;;;;;;9.63;8.50;;;;;;;13.27;100.00;93326.22;2509657;23;20048;-87
2023/09/08 01:45:15;;;;;;;8.60;7.72;;;;;;;13.19;100.00;93318.78;2507905;23;20007;-86
2023/09/08 01:46:19;;;;;;;9.57;8.60;;;;;;;13.23;100.00;93320.19;2509470;23;20030;-86
2023/09/08 01:47:21;;;;;;;10.15;8.63;;;;;;;13.21;100.00;93319.84;2521865;23;20052;-88
2023/09/08 01:48:51;;;;;;;9.43;8.50;;;;;;;13.22;100.00;93316.03;2509405;23;20047;-87
2023/09/08 01:49:53;;;;;;;9.88;8.88;;;;;;;13.24;100.00;93324.38;2520584;23;20076;-88
2023/09/08 01:50:55;;;;;;;9.40;8.55;;;;;;;13.23;100.00;93325.56;2509388;23;20089;-87
2023/09/08 01:51:56;;;;;;;11.70;8.43;;;;;;;13.24;100.00;93327.06;2533534;23;20364;-88
2023/09/08 01:52:58;;;;;;;9.60;8.70;;;;;;;13.30;100.00;93320.00;2532918;23;20093;-87
2023/09/08 01:54:00;;;;;;;9.43;8.48;;;;;;;13.13;100.00;93323.19;2521675;23;20058;-87
2023/09/08 01:55:02;;;;;;;10.02;8.48;;;;;;;13.22;100.00;93317.94;2521031;23;19998;-87
2023/09/08 01:56:04;;;;;;;10.32;9.10;;;;;;;13.13;100.00;93323.19;2508287;23;20106;-87
2023/09/08 01:57:09;;;;;;;9.65;8.15;;;;;;;13.09;100.00;93328.63;2509399;23;20477;-86
2023/09/08 01:58:10;;;;;;;9.63;8.63;;;;;;;13.04;100.00;93321.13;2522606;23;20013;-87
2023/09/08 01:59:12;;;;;;;9.20;8.38;;;;;;;13.10;100.00;93322.09;2533221;23;20018;-87
2023/09/08 02:00:14;;;;;;;10.32;8.05;;;;;;;13.11;100.00;93320.91;2521289;23;20418;-89
2023/09/08 02:01:15;;;;;;;10.10;8.88;;;;;;;13.12;100.00;93322.41;2521437;23;20007;-89
2023/09/08 02:02:17;;;;;;;10.15;8.18;;;;;;;13.12;100.00;93322.41;2533088;23;20010;-88
2023/09/08 02:03:19;;;;;;;9.88;8.98;;;;;;;13.01;100.00;93322.72;2532956;23;20006;-88
2023/09/08 02:04:23;;;;;;;10.35;8.77;;;;;;;12.96;100.00;93325.91;2522796;23;20006;-88
2023/09/08 02:05:26;;;;;;;12.43;9.50;;;;;;;12.98;100.00;93314.75;2533141;23;20006;-86
2023/09/08 02:06:28;;;;;;;9.70;8.80;;;;;;;13.04;100.00;93324.53;2521369;23;20385;-87
2023/09/08 02:07:33;;;;;;;9.60;8.60;;;;;;;13.00;100.00;93329.25;2522757;23;20085;-87
2023/09/08 02:08:34;;;;;;;10.13;9.13;;;;;;;13.02;100.00;93323.47;2533570;23;20041;-87
2023/09/08 02:09:37;;;;;;;12.85;8.70;;;;;;;12.98;100.00;93317.44;2533408;23;20006;-87
2023/09/08 02:10:40;;;;;;;10.18;8.68;;;;;;;12.98;100.00;93320.13;2521673;23;20077;-87
2023/09/08 02:11:43;;;;;;;9.60;8.73;;;;;;;12.94;100.00;93322.16;2509818;23;20006;-88
2023/09/08 02:12:45;;;;;;;9.88;8.85;;;;;;;12.96;100.00;93319.81;2522285;23;20587;-87
2023/09/08 02:13:50;;;;;;;11.70;8.75;;;;;;;12.97;100.00;93326.66;2521783;23;20146;-86
2023/09/08 02:14:52;;;;;;;9.45;8.40;;;;;;;12.86;100.00;93321.56;2510130;23;20006;-86
2023/09/08 02:15:53;;;;;;;9.75;8.60;;;;;;;12.90;100.00;93322.22;2521231;23;20007;-87
2023/09/08 02:16:56;;;;;;;10.73;9.13;;;;;;;12.91;100.00;93320.31;2521256;23;20006;-88
2023/09/08 02:18:01;;;;;;;12.55;8.32;;;;;;;12.98;100.00;93325.47;2509921;23;20017;-86
2023/09/08 02:19:04;;;;;;;13.82;8.77;;;;;;;12.99;100.00;93325.03;2521626;23;20095;-87
2023/09/08 02:20:08;;;;;;;9.43;8.45;;;;;;;13.00;100.00;93321.22;2521621;23;20013;-88
2023/09/08 02:23:07;;;;;;;;;;;;;;;12.78;100.00;93321.03;2131753;27;20631;-89
2023/09/08 02:24:09;;;;;;;10.30;8.48;;;;;;;12.86;100.00;93316.22;2113527;28;19918;-88
2023/09/08 02:25:10;;;;;;;9.40;8.40;;;;;;;12.99;100.00;93318.94;2108624;28;20027;-87
2023/09/08 02:26:13;;;;;;;10.57;9.15;;;;;;;12.89;100.00;93317.31;2113368;28;20031;-89
2023/09/08 02:27:23;;;;;;;12.13;9.00;;;;;;;12.77;100.00;93313.41;2103851;28;20020;-88
2023/09/08 02:28:25;;;;;;;10.90;8.43;;;;;;;12.72;100.00;93317.34;2107404;28;20051;-88
2023/09/08 02:29:30;;;;;;;9.20;8.30;;;;;;;12.76;100.00;93315.31;2114127;27;20081;-87
2023/09/08 02:30:38;;;;;;;10.05;9.00;;;;;;;12.75;100.00;93316.50;2107403;28;20531;-87
2023/09/08 02:31:41;;;;;;;9.57;8.68;;;;;;;12.69;100.00;93309.41;2116062;27;20421;-88
2023/09/08 02:32:44;;;;;;;10.98;9.25;;;;;;;12.65;100.00;93314.88;2113693;28;20380;-87
2023/09/08 02:33:49;;;;;;;11.00;9.13;;;;;;;12.67;100.00;93312.50;2108859;27;20028;-87
2023/09/08 02:34:54;;;;;;;10.82;8.88;;;;;;;12.67;100.00;93315.19;2113593;28;20024;-87
2023/09/08 02:36:00;;;;;;;14.32;9.65;;;;;;;12.74;100.00;93311.59;2113456;28;20522;-87
2023/09/08 02:37:04;;;;;;;12.05;8.95;;;;;;;12.74;100.00;93317.69;2109481;28;20023;-88
2023/09/08 02:38:07;;;;;;;11.40;8.88;;;;;;;12.67;100.00;93315.19;2114141;28;20426;-87
2023/09/08 02:39:08;;;;;;;10.65;9.60;;;;;;;12.72;100.00;93321.97;2106294;28;20028;-88
2023/09/08 02:40:10;;;;;;;9.95;8.70;;;;;;;12.68;100.00;93316.69;2113376;28;20035;-89
2023/09/08 02:41:11;;;;;;;11.68;8.73;;;;;;;12.67;100.00;93320.56;2113658;28;20032;-86
2023/09/08 02:42:15;;;;;;;9.98;9.00;;;;;;;12.72;100.00;93319.28;2117787;28;20419;-88
2023/09/08 02:43:16;;;;;;;11.82;8.77;;;;;;;12.79;100.00;93322.53;2113332;28;20428;-87
2023/09/08 02:44:18;;;;;;;10.20;9.15;;;;;;;12.77;100.00;93321.44;2112498;28;20863;-87
2023/09/08 02:45:19;;;;;;;13.88;9.77;;;;;;;12.70;100.00;93319.72;2102561;28;20035;-87
2023/09/08 02:46:23;;;;;;;12.25;9.38;;;;;;;12.70;100.00;93329.69;2096667;28;20028;-87
2023/09/08 02:47:25;;;;;;;10.75;9.38;;;;;;;12.73;100.00;93323.47;2104979;28;20414;-87
2023/09/08 02:48:27;;;;;;;9.90;8.95;;;;;;;12.68;100.00;93318.63;2106398;27;20146;-87
2023/09/08 02:49:29;;;;;;;11.30;9.63;;;;;;;12.60;100.00;93321.50;2121836;28;20019;-88
2023/09/08 02:50:31;;;;;;;11.95;8.90;;;;;;;12.70;100.00;93319.72;2109066;28;20036;-88
2023/09/08 02:51:34;;;;;;;12.98;9.13;;;;;;;12.69;100.00;93317.47;2113499;28;20020;-88
2023/09/08 02:52:35;;;;;;;13.35;8.63;;;;;;;12.68;100.00;93313.25;2105449;28;20405;-88
2023/09/08 02:53:36;;;;;;;11.85;9.07;;;;;;;12.71;100.00;93320.47;2101661;28;20033;-89
2023/09/08 02:54:39;;;;;;;15.38;9.57;;;;;;;12.67;100.00;93306.41;2104827;28;20028;-89
2023/09/08 02:55:42;;;;;;;9.80;8.30;;;;;;;12.63;100.00;93316.47;2113423;28;20487;-87
2023/09/08 02:56:52;;;;;;;9.02;7.72;;;;;;;12.63;100.00;93313.78;2121601;27;20023;-88
2023/09/08 02:57:57;;;;;;;8.90;8.02;;;;;;;12.66;100.00;93313.69;2122237;27;20019;-88
2023/09/08 02:59:07;;;;;;;10.50;8.40;;;;;;;12.66;100.00;93312.94;2121644;27;20016;-88
2023/09/08 03:00:11;;;;;;;8.63;7.75;;;;;;;12.68;100.00;93305.97;2105793;27;20028;-88
2023/09/08 03:01:19;;;;;;;9.20;8.30;;;;;;;12.60;100.00;93310.78;2106221;28;20024;-88
2023/09/08 03:02:26;;;;;;;9.75;7.90;;;;;;;12.63;100.00;93314.53;2106126;28;20033;-87
2023/09/08 03:03:30;;;;;;;10.07;7.90;;;;;;;12.56;100.00;93315.47;2105782;27;20021;-87
2023/09/08 03:04:54;;;;;;;9.02;7.30;;;;;;;12.67;100.00;93309.81;2114160;28;20532;-88
2023/09/08 03:05:58;;;;;;;9.88;8.13;;;;;;;12.58;100.00;93313.13;2111279;28;20130;-87
2023/09/08 03:07:04;;;;;;;9.45;8.55;;;;;;;12.51;100.00;93307.97;2098558;28;20025;-88
2023/09/08 03:08:09;;;;;;;8.75;7.57;;;;;;;12.56;100.00;93312.06;2105585;28;20031;-86
2023/09/08 03:09:11;;;;;;;10.40;7.63;;;;;;;12.51;100.00;93310.63;2099910;27;20021;-86
2023/09/08 03:10:12;;;;;;;8.88;7.57;;;;;;;12.55;100.00;93310.53;2112543;28;20024;-87
2023/09/08 03:11:21;;;;;;;8.27;7.55;;;;;;;12.57;100.00;93306.25;2098514;28;20487;-86
2023/09/08 03:12:24;;;;;;;10.15;7.72;;;;;;;12.51;100.00;93309.88;2097393;28;20024;-87
2023/09/08 03:13:26;;;;;;;8.32;7.43;;;;;;;12.53;100.00;93302.16;2105138;28;20028;-88
2023/09/08 03:14:29;;;;;;;7.95;7.13;;;;;;;12.55;100.00;93303.22;2104494;28;20024;-88
2023/09/08 03:15:35;;;;;;;7.57;6.85;;;;;;;12.54;100.00;93307.09;2105102;28;20020;-88
2023/09/08 03:16:40;;;;;;;10.10;7.47;;;;;;;12.54;100.00;93306.34;2113419;28;20095;-87
2023/09/08 03:17:42;;;;;;;8.60;7.70;;;;;;;12.47;100.00;93301.94;2111229;28;20426;-89
2023/09/08 03:18:44;;;;;;;8.38;7.25;;;;;;;12.50;100.00;93305.69;2096458;28;20040;-87
2023/09/08 03:19:47;;;;;;;9.27;7.30;;;;;;;12.42;100.00;93307.78;2105119;28;20028;-87
2023/09/08 03:20:49;;;;;;;7.32;6.72;;;;;;;12.39;100.00;93303.28;2099764;28;20017;-87
2023/09/08 03:21:51;;;;;;;9.73;7.10;;;;;;;12.37;100.00;93308.31;2090136;28;20021;-87
2023/09/08 03:22:53;;;;;;;8.50;7.60;;;;;;;12.40;100.00;93307.47;2095919;28;20120;-87
2023/09/08 03:23:56;;;;;;;8.45;7.55;;;;;;;12.41;100.00;93308.97;2107726;28;20441;-87
2023/09/08 03:25:01;;;;;;;9.52;7.72;;;;;;;12.44;100.00;93307.38;2104569;28;20027;-87
2023/09/08 03:26:06;;;;;;;9.77;8.30;;;;;;;12.40;100.00;93315.50;2097503;28;20024;-87
2023/09/08 03:27:09;;;;;;;10.23;7.88;;;;;;;12.41;100.00;93313.59;2104782;28;20075;-88
2023/09/08 03:28:11;;;;;;;9.60;7.35;;;;;;;12.42;100.00;93315.09;2096474;28;20024;-87
2023/09/08 03:29:13;;;;;;;8.45;7.63;;;;;;;12.44;100.00;93313.50;2096412;28;20107;-87
2023/09/08 03:30:15;;;;;;;9.20;7.60;;;;;;;12.35;100.00;93307.97;2104697;28;20034;-86
2023/09/08 03:31:19;;;;;;;9.20;8.10;;;;;;;12.39;100.00;93310.59;2104616;28;20082;-87
2023/09/08 03:32:21;;;;;;;10.05;8.60;;;;;;;12.36;100.00;93312.16;2104786;28;20026;-87
2023/09/08 03:33:24;;;;;;;11.15;8.60;;;;;;;12.31;100.00;93321.47;2104571;28;20031;-87
2023/09/08 03:34:28;;;;;;;10.68;8.80;;;;;;;12.37;100.00;93310.22;2093300;28;20032;-88
2023/09/08 03:35:30;;;;;;;9.77;8.88;;;;;;;12.38;100.00;93315.19;2083075;28;20079;-86
2023/09/08 03:36:35;;;;;;;10.98;9.32;;;;;;;12.27;100.00;93307.41;2098903;28;20024;-87
2023/09/08 03:37:37;;;;;;;12.82;9.98;;;;;;;12.23;100.00;93312.09;2103288;28;20180;-88
2023/09/08 03:38:40;;;;;;;12.60;9.95;;;;;;;12.26;100.00;93313.94;2098795;28;20020;-88
2023/09/08 03:39:42;;;;;;;11.18;8.52;;;;;;;12.34;100.00;93309.16;2100652;28;20024;-89
2023/09/08 03:40:44;;;;;;;14.90;9.00;;;;;;;12.29;100.00;93312.34;2111565;28;20175;-87
2023/09/08 03:41:54;;;;;;;10.50;8.90;;;;;;;12.28;100.00;93316.19;2090566;28;20033;-88
2023/09/08 03:42:59;;;;;;;12.50;9.68;;;;;;;12.22;100.00;93312.53;2093097;28;20025;-88
2023/09/08 03:44:04;;;;;;;12.98;8.93;;;;;;;12.27;100.00;93306.66;2093327;28;20029;-88
2023/09/08 03:45:05;;;;;;;11.10;8.82;;;;;;;12.32;100.00;93309.56;2107455;28;20032;-87
2023/09/08 03:46:10;;;;;;;10.75;8.63;;;;;;;12.28;100.00;93308.91;2110370;28;20035;-87
2023/09/08 03:47:11;;;;;;;15.23;9.30;;;;;;;12.38;100.00;93307.16;2098589;28;20020;-89
2023/09/08 03:48:14;;;;;;;9.63;8.63;;;;;;;12.39;100.00;93308.66;2098062;28;20058;-88
2023/09/08 03:49:16;;;;;;;10.90;9.02;;;;;;;12.35;100.00;93305.31;2098888;28;20078;-88
2023/09/08 03:50:17;;;;;;;17.50;10.70;;;;;;;12.41;100.00;93300.94;2092592;28;20389;-87
2023/09/08 03:51:18;;;;;;;11.50;9.30;;;;;;;12.29;100.00;93304.28;2090410;28;20258;-89
2023/09/08 03:52:20;;;;;;;12.02;9.25;;;;;;;12.31;100.00;93305.38;2112101;28;20622;-87
2023/09/08 03:53:23;;;;;;;13.10;9.68;;;;;;;12.29;100.00;93307.75;2098976;28;20029;-86
2023/09/08 03:54:27;;;;;;;10.65;9.07;;;;;;;12.24;100.00;93313.59;2098777;28;20028;-87
2023/09/08 03:55:31;;;;;;;13.38;9.98;;;;;;;12.27;100.00;93306.66;2098004;28;20506;-87
2023/09/08 03:56:33;;;;;;;10.60;9.35;;;;;;;12.31;100.00;93307.31;2099822;28;20028;-90
2023/09/08 03:57:40;;;;;;;9.93;8.90;;;;;;;12.29;100.00;93312.34;2091301;28;20404;-88
2023/09/08 03:58:43;;;;;;;12.63;9.80;;;;;;;12.24;100.00;93312.84;2090944;28;20472;-87
2023/09/08 03:59:45;;;;;;;12.13;9.48;;;;;;;12.24;100.00;93310.16;2096716;28;20495;-86
2023/09/08 04:00:48;;;;;;;11.77;9.23;;;;;;;12.27;100.00;93310.09;2112130;28;20498;-86
2023/09/08 04:01:49;;;;;;;13.10;9.65;;;;;;;12.28;100.00;93308.16;2098857;28;20024;-87
2023/09/08 04:02:52;;;;;;;16.40;8.90;;;;;;;12.38;100.00;93309.84;2095691;28;20033;-88
2023/09/08 04:03:57;;;;;;;11.80;9.48;;;;;;;12.37;100.00;93305.63;2091438;28;20048;-87
2023/09/08 04:05:02;;;;;;;12.02;10.13;;;;;;;12.23;100.00;93309.41;2090130;28;20036;-87
2023/09/08 04:06:05;;;;;;;10.38;9.27;;;;;;;12.24;100.00;93312.84;2092680;28;20045;-88
2023/09/08 04:07:08;;;;;;;12.57;9.75;;;;;;;12.29;100.00;93306.97;2099125;28;20128;-88
2023/09/08 04:08:09;;;;;;;11.32;9.88;;;;;;;12.24;100.00;93310.16;2092567;28;20761;-87
2023/09/08 04:09:14;;;;;;;10.85;9.10;;;;;;;12.27;100.00;93310.09;2083710;28;20045;-87
2023/09/08 04:10:17;;;;;;;13.80;9.85;;;;;;;12.23;100.00;93316.72;2091340;28;20716;-86
2023/09/08 04:11:19;;;;;;;12.25;9.07;;;;;;;12.22;100.00;93315.22;2106591;28;20403;-88
2023/09/08 04:12:20;;;;;;;12.18;9.65;;;;;;;12.19;100.00;93313.38;2098748;28;20023;-88
2023/09/08 04:13:22;;;;;;;11.27;10.07;;;;;;;12.19;100.00;93310.69;2082022;28;20029;-87
2023/09/08 04:14:26;;;;;;;13.57;10.25;;;;;;;12.20;100.00;93307.56;2082049;28;20029;-88
2023/09/08 04:15:29;;;;;;;12.73;9.52;;;;;;;12.17;100.00;93313.03;2082751;28;20032;-88
2023/09/08 04:16:31;;;;;;;12.00;9.50;;;;;;;12.20;100.00;93312.19;2106679;27;20206;-87
2023/09/08 04:17:37;;;;;;;11.52;9.38;;;;;;;12.17;100.00;93305.75;2121987;27;20189;-88
2023/09/08 04:18:39;;;;;;;11.32;9.13;;;;;;;12.16;100.00;93309.63;2107055;28;20147;-87
2023/09/08 04:19:44;;;;;;;12.07;9.10;;;;;;;12.22;100.00;93307.16;2099357;28;20166;-87
2023/09/08 04:20:45;;;;;;;11.45;9.50;;;;;;;12.19;100.00;93316.78;2107427;28;20028;-88
2023/09/08 04:21:47;;;;;;;10.82;9.77;;;;;;;12.15;100.00;93318.81;2098990;28;20576;-88
2023/09/08 04:22:49;;;;;;;13.50;9.65;;;;;;;12.08;100.00;93316.31;2098219;28;20036;-88
2023/09/08 04:23:51;;;;;;;11.32;9.75;;;;;;;12.09;100.00;93321.25;2106945;28;20020;-87
2023/09/08 04:24:54;;;;;;;13.88;10.00;;;;;;;12.09;100.00;93323.91;2098548;28;20017;-87
2023/09/08 04:25:56;;;;;;;11.32;9.80;;;;;;;12.13;100.00;93320.41;2089329;28;20060;-87
2023/09/08 04:26:58;;;;;;;13.70;11.65;;;;;;;12.17;100.00;93321.84;2090824;28;20025;-88
2023/09/08 04:28:00;;;;;;;14.65;10.40;;;;;;;12.16;100.00;93325.69;2106040;28;20468;-90
2023/09/08 04:29:02;;;;;;;14.27;10.65;;;;;;;12.19;100.00;93318.72;2090682;28;20017;-89
2023/09/08 04:30:06;;;;;;;15.73;10.60;;;;;;;12.15;100.00;93323.41;2089967;28;20048;-87
2023/09/08 04:31:36;;;;;;;13.73;11.00;;;;;;;12.12;100.00;93321.59;2105616;28;20114;-87
2023/09/08 04:32:37;;;;;;;15.02;10.45;;;;;;;12.14;100.00;93324.59;2106521;28;20028;-88
2023/09/08 04:33:39;;;;;;;12.77;10.10;;;;;;;12.17;100.00;93327.19;2088898;28;20075;-87
2023/09/08 04:34:43;;;;;;;16.67;10.70;;;;;;;12.06;100.00;93326.69;2099467;28;20107;-88
2023/09/08 04:35:45;;;;;;;17.05;10.85;;;;;;;12.00;100.00;93331.06;2106972;28;20027;-89
2023/09/08 04:36:47;;;;;;;15.43;11.35;;;;;;;12.01;100.00;93324.50;2101557;28;20020;-87
2023/09/08 04:37:48;;;;;;;15.48;11.90;;;;;;;12.07;100.00;93330.84;2098132;28;20021;-88
2023/09/08 04:38:53;;;;;;;13.38;11.63;;;;;;;12.08;100.00;93327.03;2081703;28;20025;-87
2023/09/08 04:39:55;;;;;;;11.68;10.48;;;;;;;12.10;100.00;93330.03;2086269;28;20016;-87
2023/09/08 04:40:57;;;;;;;15.98;11.30;;;;;;;12.02;100.00;93326.75;2098162;28;20024;-87
2023/09/08 04:42:00;;;;;;;14.32;10.50;;;;;;;12.10;100.00;93324.66;2105735;28;20506;-87
2023/09/08 04:43:01;;;;;;;16.45;11.05;;;;;;;12.11;100.00;93331.53;2097999;28;20028;-88
2023/09/08 04:44:04;;;;;;;15.40;10.85;;;;;;;12.09;100.00;93325.84;2090155;28;20063;-87
2023/09/08 04:45:07;;;;;;;14.10;11.15;;;;;;;12.18;100.00;93320.66;2098016;28;20020;-88
2023/09/08 04:46:09;;;;;;;16.42;11.32;;;;;;;12.20;100.00;93318.28;2089085;28;20028;-88
2023/09/08 04:47:13;;;;;;;13.70;10.63;;;;;;;12.23;100.00;93330.09;2097376;28;20469;-87
2023/09/08 04:48:14;;;;;;;14.35;11.48;;;;;;;12.21;100.00;93322.50;2092371;28;20082;-88
2023/09/08 04:49:15;;;;;;;13.82;10.77;;;;;;;12.21;100.00;93327.84;2090041;28;20021;-88
2023/09/08 04:50:17;;;;;;;13.98;11.13;;;;;;;12.20;100.00;93322.91;2089808;28;20037;-89
2023/09/08 04:51:18;;;;;;;15.40;10.90;;;;;;;12.27;100.00;93326.16;2081591;28;20025;-87
2023/09/08 04:52:20;;;;;;;12.20;10.88;;;;;;;12.27;100.00;93326.16;2087042;28;20457;-86
2023/09/08 04:53:24;;;;;;;12.23;10.95;;;;;;;12.22;100.00;93325.94;2090156;28;20025;-87
2023/09/08 04:54:27;;;;;;;15.27;11.50;;;;;;;12.17;100.00;93326.44;2090109;28;20186;-87
2023/09/08 04:55:31;;;;;;;12.65;10.23;;;;;;;12.12;100.00;93327.69;2090250;28;20644;-88
2023/09/08 04:56:33;;;;;;;16.42;10.63;;;;;;;12.17;100.00;93321.84;2083423;28;20021;-87